createdAt,value
2023-04-07T00:01:13.500Z,16.83
2023-04-07T00:03:41.888Z,18.53
2023-04-07T00:06:09.681Z,21.37
2023-04-07T00:08:38.821Z,17.60
2023-04-07T00:11:06.620Z,18.90
2023-04-07T00:13:34.321Z,19.13
2023-04-07T00:16:02.067Z,22.10
2023-04-07T00:18:29.897Z,17.10
2023-04-07T00:20:57.634Z,18.30
2023-04-07T00:23:25.468Z,16.67
2023-04-07T00:25:54.592Z,20.53
2023-04-07T00:28:22.296Z,18.07
2023-04-07T00:30:50.189Z,17.70
2023-04-07T00:33:17.953Z,18.83
2023-04-07T00:35:46.282Z,18.60
2023-04-07T00:38:13.975Z,19.03
2023-04-07T00:40:41.710Z,21.00
2023-04-07T00:43:10.761Z,20.43
2023-04-07T00:45:38.704Z,20.07
2023-04-07T00:48:07.385Z,18.87
2023-04-07T00:50:35.097Z,17.80
2023-04-07T00:53:03.167Z,20.00
2023-04-07T00:55:31.016Z,20.37
2023-04-07T00:57:58.711Z,21.20
2023-04-07T01:00:28.860Z,17.50
2023-04-07T01:03:00.487Z,17.80
2023-04-07T01:05:39.092Z,21.77
2023-04-07T01:08:14.173Z,21.27
2023-04-07T01:10:50.380Z,17.30
2023-04-07T01:13:24.926Z,17.30
2023-04-07T01:15:57.355Z,18.90
2023-04-07T01:18:29.337Z,16.60
2023-04-07T01:21:01.499Z,17.17
2023-04-07T01:23:53.250Z,21.20
2023-04-07T01:26:25.754Z,22.20
2023-04-07T01:29:13.402Z,18.83
2023-04-07T01:31:43.307Z,17.80
2023-04-07T01:34:12.728Z,18.57
2023-04-07T01:36:41.496Z,17.03
2023-04-07T01:39:10.425Z,21.67
2023-04-07T01:41:39.540Z,18.30
2023-04-07T01:44:08.996Z,19.37
2023-04-07T01:46:36.751Z,19.50
2023-04-07T01:49:06.788Z,20.30
2023-04-07T01:51:35.444Z,19.27
2023-04-07T01:54:03.806Z,18.23
2023-04-07T01:56:31.579Z,18.27
2023-04-07T01:58:59.253Z,21.07
2023-04-07T02:01:27.119Z,18.67
2023-04-07T02:04:02.004Z,18.17
2023-04-07T02:06:35.678Z,16.43
2023-04-07T02:09:07.995Z,25.73
2023-04-07T02:11:36.957Z,17.40
2023-04-07T02:14:07.166Z,17.63
2023-04-07T02:16:36.431Z,18.83
2023-04-07T02:19:05.506Z,18.90
2023-04-07T02:21:36.420Z,17.53
2023-04-07T02:24:07.350Z,20.93
2023-04-07T02:26:36.324Z,19.03
2023-04-07T02:29:04.559Z,17.17
2023-04-07T02:31:32.367Z,18.00
2023-04-07T02:34:00.197Z,21.70
2023-04-07T02:36:27.918Z,19.23
2023-04-07T02:38:56.982Z,17.10
2023-04-07T02:41:24.660Z,18.13
2023-04-07T02:43:52.536Z,18.17
2023-04-07T02:46:20.520Z,17.07
2023-04-07T02:48:48.293Z,18.47
2023-04-07T02:51:15.969Z,20.33
2023-04-07T02:53:43.656Z,22.27
2023-04-07T02:56:12.716Z,16.97
2023-04-07T02:58:40.413Z,20.10
2023-04-07T03:01:08.143Z,23.67
2023-04-07T03:03:36.157Z,20.37
2023-04-07T03:06:04.019Z,19.67
2023-04-07T03:08:31.683Z,18.37
2023-04-07T03:10:59.370Z,20.33
2023-04-07T03:13:29.860Z,16.53
2023-04-07T03:15:57.869Z,19.90
2023-04-07T03:18:25.616Z,17.23
2023-04-07T03:20:55.284Z,19.30
2023-04-07T03:23:23.911Z,17.37
2023-04-07T03:25:51.662Z,20.87
2023-04-07T03:28:19.352Z,19.90
2023-04-07T03:30:48.436Z,19.80
2023-04-07T03:33:17.199Z,18.97
2023-04-07T03:35:44.935Z,20.13
2023-04-07T03:38:12.811Z,19.47
2023-04-07T03:40:40.899Z,18.90
2023-04-07T03:43:12.462Z,19.13
2023-04-07T03:45:40.437Z,20.07
2023-04-07T03:48:11.965Z,22.00
2023-04-07T03:50:40.486Z,17.80
2023-04-07T03:53:08.271Z,17.70
2023-04-07T03:55:36.152Z,18.87
2023-04-07T03:58:03.856Z,21.30
2023-04-07T04:00:33.145Z,21.03
2023-04-07T04:03:01.112Z,20.63
2023-04-07T04:05:30.377Z,21.13
2023-04-07T04:07:58.053Z,19.20
2023-04-07T04:10:25.768Z,20.53
2023-04-07T04:12:53.545Z,22.00
2023-04-07T04:15:21.290Z,18.10
2023-04-07T04:17:49.326Z,19.53
2023-04-07T04:20:17.065Z,20.90
2023-04-07T04:22:46.134Z,21.10
2023-04-07T04:25:13.814Z,22.50
2023-04-07T04:27:41.685Z,22.20
2023-04-07T04:30:10.082Z,18.53
2023-04-07T04:32:38.231Z,18.13
2023-04-07T04:35:06.779Z,16.43
2023-04-07T04:37:34.765Z,24.03
2023-04-07T04:40:04.039Z,18.20
2023-04-07T04:42:33.789Z,18.97
2023-04-07T04:45:01.532Z,21.83
2023-04-07T04:47:29.279Z,18.10
2023-04-07T04:49:57.052Z,20.50
2023-04-07T04:52:24.790Z,17.67
2023-04-07T04:54:52.493Z,19.93
2023-04-07T04:57:21.539Z,17.97
2023-04-07T04:59:49.416Z,20.87
2023-04-07T05:02:17.218Z,21.00
2023-04-07T05:04:45.104Z,20.83
2023-04-07T05:07:12.919Z,23.50
2023-04-07T05:09:40.595Z,19.80
2023-04-07T05:12:08.521Z,18.50
2023-04-07T05:14:37.552Z,19.43
2023-04-07T05:17:05.267Z,21.83
2023-04-07T05:19:33.524Z,20.20
2023-04-07T05:22:01.245Z,19.83
2023-04-07T05:24:30.122Z,23.17
2023-04-07T05:26:57.926Z,23.53
2023-04-07T05:29:25.862Z,18.77
2023-04-07T05:31:54.931Z,23.63
2023-04-07T05:34:22.689Z,20.30
2023-04-07T05:36:51.069Z,21.03
2023-04-07T05:39:18.776Z,20.47
2023-04-07T05:41:46.584Z,22.10
2023-04-07T05:44:14.307Z,22.37
2023-04-07T05:46:42.050Z,20.73
2023-04-07T05:49:19.754Z,21.13
2023-04-07T05:51:49.177Z,20.90
2023-04-07T05:54:17.302Z,20.50
2023-04-07T05:56:45.430Z,20.57
2023-04-07T05:59:13.128Z,24.00
2023-04-07T06:01:41.098Z,22.97
2023-04-07T06:04:08.908Z,23.40
2023-04-07T06:06:39.030Z,27.80
2023-04-07T06:09:07.781Z,23.30
2023-04-07T06:11:36.029Z,30.30
2023-04-07T06:14:03.713Z,22.97
2023-04-07T06:16:31.440Z,24.80
2023-04-07T06:18:59.259Z,27.40
2023-04-07T06:21:27.352Z,26.03
2023-04-07T06:23:56.416Z,28.67
2023-04-07T06:26:24.444Z,28.70
2023-04-07T06:28:52.863Z,21.30
2023-04-07T06:31:20.951Z,22.53
2023-04-07T06:33:48.903Z,25.37
2023-04-07T06:36:16.795Z,24.73
2023-04-07T06:38:44.592Z,21.37
2023-04-07T06:41:16.914Z,25.50
2023-04-07T06:43:45.043Z,25.20
2023-04-07T06:46:12.791Z,24.37
2023-04-07T06:48:40.767Z,22.00
2023-04-07T06:51:08.460Z,26.97
2023-04-07T06:53:36.428Z,20.67
2023-04-07T06:56:05.430Z,19.93
2023-04-07T06:58:35.689Z,22.37
2023-04-07T07:01:03.943Z,24.30
2023-04-07T07:03:32.088Z,19.70
2023-04-07T07:06:00.237Z,20.47
2023-04-07T07:08:28.980Z,22.70
2023-04-07T07:10:56.762Z,22.73
2023-04-07T07:13:26.102Z,19.93
2023-04-07T07:15:56.016Z,18.77
2023-04-07T07:18:23.746Z,16.07
2023-04-07T07:20:51.669Z,17.50
2023-04-07T07:23:19.449Z,18.27
2023-04-07T07:25:47.189Z,18.63
2023-04-07T07:28:15.083Z,19.23
2023-04-07T07:30:42.886Z,20.33
2023-04-07T07:33:11.982Z,20.33
2023-04-07T07:35:40.380Z,24.10
2023-04-07T07:38:08.358Z,21.83
2023-04-07T07:40:36.141Z,25.27
2023-04-07T07:43:03.880Z,22.20
2023-04-07T07:45:31.594Z,27.43
2023-04-07T07:47:59.355Z,19.87
2023-04-07T07:50:28.467Z,17.77
2023-04-07T07:52:56.182Z,22.17
2023-04-07T07:55:24.082Z,19.90
2023-04-07T07:57:51.804Z,18.33
2023-04-07T08:00:19.815Z,22.30
2023-04-07T08:02:47.611Z,22.23
2023-04-07T08:05:15.478Z,21.10
2023-04-07T08:07:44.519Z,17.77
2023-04-07T08:10:12.236Z,17.50
2023-04-07T08:12:40.006Z,20.77
2023-04-07T08:15:09.767Z,18.20
2023-04-07T08:17:37.744Z,21.57
2023-04-07T08:20:06.774Z,18.53
2023-04-07T08:22:34.530Z,18.40
2023-04-07T08:25:03.590Z,17.20
2023-04-07T08:27:31.318Z,19.23
2023-04-07T08:30:02.853Z,18.70
2023-04-07T08:32:36.602Z,18.87
2023-04-07T08:35:04.853Z,19.30
2023-04-07T08:37:33.122Z,15.57
2023-04-07T08:40:00.872Z,14.93
2023-04-07T08:42:31.577Z,14.03
2023-04-07T08:45:03.497Z,16.23
2023-04-07T08:47:34.012Z,14.73
2023-04-07T08:50:03.732Z,15.10
2023-04-07T08:52:35.312Z,14.83
2023-04-07T08:55:06.704Z,13.30
2023-04-07T08:57:36.088Z,14.57
2023-04-07T09:00:05.882Z,12.90
2023-04-07T09:02:35.116Z,18.97
2023-04-07T09:05:05.575Z,16.60
2023-04-07T09:07:34.624Z,13.27
2023-04-07T09:10:02.603Z,12.33
2023-04-07T09:12:31.404Z,13.50
2023-04-07T09:15:00.941Z,14.30
2023-04-07T09:17:29.682Z,14.03
2023-04-07T09:19:58.369Z,14.10
2023-04-07T09:22:36.959Z,14.90
2023-04-07T09:25:12.676Z,15.00
2023-04-07T09:27:40.428Z,22.80
2023-04-07T09:30:16.663Z,12.53
2023-04-07T09:32:44.570Z,13.43
2023-04-07T09:35:12.354Z,15.33
2023-04-07T09:37:40.230Z,12.67
2023-04-07T09:40:09.519Z,11.27
2023-04-07T09:42:45.404Z,11.57
2023-04-07T09:45:18.590Z,13.13
2023-04-07T09:47:56.962Z,12.97
2023-04-07T09:50:35.157Z,14.57
2023-04-07T09:53:04.654Z,13.17
2023-04-07T09:55:33.857Z,13.63
2023-04-07T09:58:02.517Z,13.40
2023-04-07T10:00:30.358Z,15.67
2023-04-07T10:02:59.772Z,12.00
2023-04-07T10:05:28.607Z,14.77
2023-04-07T10:07:57.017Z,15.80
2023-04-07T10:10:26.483Z,13.30
2023-04-07T10:12:55.049Z,14.87
2023-04-07T10:15:23.822Z,17.07
2023-04-07T10:17:52.640Z,16.60
2023-04-07T10:20:22.520Z,12.77
2023-04-07T10:22:51.914Z,12.23
2023-04-07T10:25:21.655Z,16.47
2023-04-07T10:27:52.318Z,12.87
2023-04-07T10:30:23.698Z,13.00
2023-04-07T10:32:54.308Z,12.40
2023-04-07T10:35:24.280Z,12.47
2023-04-07T10:38:14.916Z,14.17
2023-04-07T10:40:43.544Z,14.03
2023-04-07T10:43:12.018Z,14.37
2023-04-07T10:45:59.327Z,14.20
2023-04-07T10:48:32.784Z,14.80
2023-04-07T10:51:16.244Z,13.83
2023-04-07T10:54:27.913Z,14.93
2023-04-07T10:57:11.791Z,13.80
2023-04-07T10:59:43.345Z,14.33
2023-04-07T11:02:35.207Z,14.20
2023-04-07T11:05:03.645Z,12.67
2023-04-07T11:07:55.129Z,18.53
2023-04-07T11:10:23.258Z,16.03
2023-04-07T11:13:08.109Z,15.80
2023-04-07T11:15:40.682Z,14.60
2023-04-07T11:18:17.720Z,12.70
2023-04-07T11:20:54.118Z,13.23
2023-04-07T11:23:25.380Z,12.73
2023-04-07T11:26:00.194Z,13.47
2023-04-07T11:28:28.072Z,15.07
2023-04-07T11:30:58.452Z,13.70
2023-04-07T11:33:28.236Z,14.43
2023-04-07T11:35:57.672Z,16.57
2023-04-07T11:38:28.863Z,15.67
2023-04-07T11:40:57.612Z,13.67
2023-04-07T11:43:27.889Z,13.30
2023-04-07T11:46:08.990Z,12.90
2023-04-07T11:48:38.250Z,13.13
2023-04-07T11:51:07.116Z,16.43
2023-04-07T11:53:38.933Z,13.23
2023-04-07T11:56:09.594Z,13.63
2023-04-07T11:58:38.628Z,16.13
2023-04-07T12:01:08.818Z,14.30
2023-04-07T12:03:38.012Z,13.03
2023-04-07T12:06:06.309Z,13.77
2023-04-07T12:08:45.320Z,14.03
2023-04-07T12:11:13.288Z,16.17
2023-04-07T12:13:41.416Z,12.10
2023-04-07T12:16:09.303Z,13.83
2023-04-07T12:18:37.035Z,14.00
2023-04-07T12:21:05.425Z,17.13
2023-04-07T12:23:33.144Z,14.30
2023-04-07T12:26:02.209Z,15.27
2023-04-07T12:28:29.965Z,15.33
2023-04-07T12:30:57.700Z,13.53
2023-04-07T12:33:25.437Z,14.20
2023-04-07T12:35:53.329Z,13.53
2023-04-07T12:38:21.273Z,13.63
2023-04-07T12:40:48.978Z,14.00
2023-04-07T12:43:18.014Z,12.80
2023-04-07T12:45:45.808Z,13.57
2023-04-07T12:48:13.651Z,14.23
2023-04-07T12:50:41.594Z,16.40
2023-04-07T12:53:09.455Z,13.43
2023-04-07T12:55:37.375Z,14.50
2023-04-07T12:58:05.105Z,13.50
2023-04-07T13:00:34.246Z,15.17
2023-04-07T13:03:03.502Z,13.80
2023-04-07T13:05:31.497Z,11.93
2023-04-07T13:07:59.636Z,13.60
2023-04-07T13:10:27.468Z,13.93
2023-04-07T13:12:55.893Z,13.80
2023-04-07T13:15:24.536Z,15.00
2023-04-07T13:17:53.654Z,12.97
2023-04-07T13:20:21.875Z,14.80
2023-04-07T13:22:59.214Z,13.90
2023-04-07T13:25:33.763Z,18.33
2023-04-07T13:28:01.506Z,13.97
2023-04-07T13:30:29.206Z,13.57
2023-04-07T13:32:58.318Z,13.97
2023-04-07T13:35:26.275Z,13.70
2023-04-07T13:37:54.204Z,13.13
2023-04-07T13:40:21.915Z,14.50
2023-04-07T13:42:49.604Z,13.03
2023-04-07T13:45:17.320Z,12.10
2023-04-07T13:47:46.034Z,16.03
2023-04-07T13:50:15.808Z,11.43
2023-04-07T13:52:43.695Z,11.80
2023-04-07T13:55:11.571Z,10.80
2023-04-07T13:57:39.303Z,11.17
2023-04-07T14:00:08.396Z,12.37
2023-04-07T14:02:36.151Z,12.20
2023-04-07T14:05:03.962Z,11.17
2023-04-07T14:07:33.042Z,11.23
2023-04-07T14:10:01.128Z,11.50
2023-04-07T14:12:28.845Z,11.20
2023-04-07T14:14:57.050Z,13.43
2023-04-07T14:17:24.821Z,11.40
2023-04-07T14:19:52.519Z,12.20
2023-04-07T14:22:20.844Z,12.30
2023-04-07T14:24:49.929Z,12.53
2023-04-07T14:27:20.892Z,10.93
2023-04-07T14:29:48.901Z,11.40
2023-04-07T14:32:17.298Z,11.50
2023-04-07T14:34:45.043Z,11.67
2023-04-07T14:37:13.949Z,12.90
2023-04-07T14:39:45.891Z,13.33
2023-04-07T14:42:24.708Z,11.20
2023-04-07T14:44:53.109Z,14.43
2023-04-07T14:47:21.028Z,10.03
2023-04-07T14:49:49.994Z,12.17
2023-04-07T14:52:19.379Z,12.60
2023-04-07T14:54:47.265Z,11.57
2023-04-07T14:57:15.085Z,11.53
2023-04-07T14:59:44.124Z,13.30
2023-04-07T15:02:12.006Z,11.90
2023-04-07T15:04:39.914Z,11.57
2023-04-07T15:07:07.665Z,12.50
2023-04-07T15:09:35.651Z,11.63
2023-04-07T15:12:05.055Z,12.90
2023-04-07T15:14:32.783Z,12.20
2023-04-07T15:17:01.848Z,10.83
2023-04-07T15:19:29.643Z,10.87
2023-04-07T15:21:57.325Z,14.00
2023-04-07T15:24:25.150Z,12.03
2023-04-07T15:26:52.828Z,10.77
2023-04-07T15:29:20.514Z,11.67
2023-04-07T15:31:48.253Z,11.90
2023-04-07T15:34:17.355Z,15.23
2023-04-07T15:36:45.283Z,11.13
2023-04-07T15:39:12.987Z,12.60
2023-04-07T15:41:42.031Z,12.00
2023-04-07T15:44:09.782Z,12.17
2023-04-07T15:46:37.538Z,13.50
2023-04-07T15:49:05.275Z,13.57
2023-04-07T15:51:34.389Z,10.67
2023-04-07T15:54:02.409Z,14.30
2023-04-07T15:56:30.138Z,10.87
2023-04-07T15:58:57.841Z,12.70
2023-04-07T16:01:25.977Z,9.70
2023-04-07T16:03:54.138Z,12.70
2023-04-07T16:06:22.174Z,9.83
2023-04-07T16:08:51.488Z,11.07
2023-04-07T16:11:19.200Z,10.50
2023-04-07T16:13:47.058Z,13.10
2023-04-07T16:16:14.989Z,10.40
2023-04-07T16:18:42.706Z,10.83
2023-04-07T16:21:11.062Z,10.90
2023-04-07T16:23:38.748Z,10.60
2023-04-07T16:26:07.823Z,11.00
2023-04-07T16:28:35.601Z,12.73
2023-04-07T16:31:05.909Z,14.43
2023-04-07T16:33:33.600Z,9.93
2023-04-07T16:36:01.359Z,10.70
2023-04-07T16:38:29.117Z,10.97
2023-04-07T16:41:03.994Z,10.40
2023-04-07T16:43:33.626Z,11.50
2023-04-07T16:46:01.557Z,10.40
2023-04-07T16:48:29.647Z,9.70
2023-04-07T16:50:57.447Z,10.70
2023-04-07T16:53:25.260Z,8.97
2023-04-07T16:55:53.009Z,9.97
2023-04-07T16:58:20.956Z,12.40
2023-04-07T17:00:49.984Z,10.73
2023-04-07T17:03:17.875Z,11.97
2023-04-07T17:05:47.066Z,10.23
2023-04-07T17:08:14.760Z,8.37
2023-04-07T17:10:42.472Z,10.80
2023-04-07T17:13:10.256Z,8.60
2023-04-07T17:15:38.701Z,9.83
2023-04-07T17:18:07.860Z,11.83
2023-04-07T17:20:35.712Z,11.67
2023-04-07T17:23:03.448Z,11.30
2023-04-07T17:25:31.274Z,9.73
2023-04-07T17:27:59.027Z,8.83
2023-04-07T17:30:26.980Z,9.60
2023-04-07T17:32:55.030Z,8.20
2023-04-07T17:35:25.011Z,10.83
2023-04-07T17:37:53.061Z,10.73
2023-04-07T17:40:21.232Z,8.97
2023-04-07T17:42:49.708Z,9.93
2023-04-07T17:45:17.710Z,9.67
2023-04-07T17:47:46.158Z,9.50
2023-04-07T17:50:14.472Z,13.00
2023-04-07T17:52:43.752Z,10.68
2023-04-07T17:55:12.380Z,10.07
2023-04-07T17:57:41.498Z,11.00
2023-04-07T18:00:09.854Z,9.20
2023-04-07T18:02:40.123Z,10.33
2023-04-07T18:05:08.732Z,12.13
2023-04-07T18:07:37.417Z,10.67
2023-04-07T18:10:08.021Z,13.53
2023-04-07T18:12:35.796Z,13.23
2023-04-07T18:15:04.508Z,16.53
2023-04-07T18:17:32.225Z,12.53
2023-04-07T18:19:59.936Z,13.17
2023-04-07T18:22:27.829Z,10.50
2023-04-07T18:24:55.734Z,9.10
2023-04-07T18:27:25.280Z,9.40
2023-04-07T18:29:53.002Z,9.97
2023-04-07T18:32:20.726Z,14.23
2023-04-07T18:34:48.738Z,13.10
2023-04-07T18:37:16.438Z,8.73
2023-04-07T18:39:44.809Z,10.80
2023-04-07T18:42:12.664Z,10.50
2023-04-07T18:44:41.676Z,9.93
2023-04-07T18:47:09.533Z,11.60
2023-04-07T18:49:37.367Z,9.50
2023-04-07T18:52:05.602Z,10.17
2023-04-07T18:54:33.414Z,12.70
2023-04-07T18:57:01.316Z,10.83
2023-04-07T18:59:29.103Z,9.37
2023-04-07T19:01:58.250Z,10.47
2023-04-07T19:04:26.192Z,11.03
2023-04-07T19:06:54.159Z,10.90
2023-04-07T19:09:22.246Z,9.57
2023-04-07T19:11:49.986Z,9.07
2023-04-07T19:14:17.752Z,8.73
2023-04-07T19:16:45.773Z,14.87
2023-04-07T19:19:14.949Z,17.00
2023-04-07T19:21:42.671Z,16.83
2023-04-07T19:24:10.667Z,9.33
2023-04-07T19:26:38.451Z,9.77
2023-04-07T19:29:07.044Z,11.50
2023-04-07T19:31:35.233Z,14.67
2023-04-07T19:34:03.011Z,68.40
2023-04-07T19:36:32.811Z,28.53
2023-04-07T19:39:00.527Z,10.63
2023-04-07T19:41:29.674Z,8.60
2023-04-07T19:43:57.387Z,9.50
2023-04-07T19:46:25.411Z,8.00
2023-04-07T19:48:53.126Z,9.03
2023-04-07T19:51:20.910Z,11.00
2023-04-07T19:53:50.199Z,13.23
2023-04-07T19:56:18.104Z,9.80
2023-04-07T19:58:45.909Z,8.20
2023-04-07T20:01:17.777Z,8.70
2023-04-07T20:03:46.685Z,10.82
2023-04-07T20:06:15.138Z,9.40
2023-04-07T20:08:43.240Z,9.47
2023-04-07T20:11:15.327Z,10.97
2023-04-07T20:13:43.345Z,14.40
2023-04-07T20:16:11.172Z,12.30
2023-04-07T20:18:38.943Z,12.93
2023-04-07T20:21:06.845Z,12.40
2023-04-07T20:23:35.004Z,8.10
2023-04-07T20:26:03.132Z,10.30
2023-04-07T20:28:32.189Z,10.03
2023-04-07T20:31:00.388Z,7.70
2023-04-07T20:33:28.324Z,9.87
2023-04-07T20:35:56.220Z,10.60
2023-04-07T20:38:25.039Z,7.90
2023-04-07T20:40:53.178Z,11.90
2023-04-07T20:43:23.552Z,10.60
2023-04-07T20:45:53.199Z,8.53
2023-04-07T20:48:23.750Z,8.63
2023-04-07T20:50:52.780Z,9.00
2023-04-07T20:53:20.650Z,10.10
2023-04-07T20:55:48.394Z,8.43
2023-04-07T20:58:17.619Z,8.80
2023-04-07T21:00:45.566Z,9.80
2023-04-07T21:03:15.288Z,10.27
2023-04-07T21:05:43.503Z,8.80
2023-04-07T21:08:13.257Z,10.90
2023-04-07T21:10:42.149Z,11.52
2023-04-07T21:13:10.058Z,8.70
2023-04-07T21:15:37.966Z,10.93
2023-04-07T21:18:05.817Z,9.53
2023-04-07T21:20:36.868Z,8.90
2023-04-07T21:23:07.502Z,10.00
2023-04-07T21:25:35.528Z,9.80
2023-04-07T21:28:03.280Z,9.03
2023-04-07T21:30:31.195Z,11.37
2023-04-07T21:32:59.063Z,10.43
2023-04-07T21:35:28.351Z,9.50
2023-04-07T21:37:57.885Z,9.43
2023-04-07T21:40:25.699Z,11.33
2023-04-07T21:42:53.499Z,11.10
2023-04-07T21:45:21.191Z,8.83
2023-04-07T21:47:48.931Z,12.77
2023-04-07T21:50:16.800Z,10.53
2023-04-07T21:52:44.586Z,9.90
2023-04-07T21:55:13.837Z,10.57
2023-04-07T21:57:41.551Z,8.90
2023-04-07T22:00:10.647Z,9.80
2023-04-07T22:02:38.793Z,9.83
2023-04-07T22:05:07.182Z,10.07
2023-04-07T22:07:34.973Z,10.77
2023-04-07T22:10:02.688Z,9.67
2023-04-07T22:12:31.703Z,10.33
2023-04-07T22:14:59.535Z,9.73
2023-04-07T22:17:28.327Z,12.47
2023-04-07T22:19:56.160Z,11.50
2023-04-07T22:22:23.990Z,16.40
2023-04-07T22:24:51.661Z,11.43
2023-04-07T22:27:19.580Z,13.43
2023-04-07T22:29:48.608Z,11.23
2023-04-07T22:32:16.408Z,13.03
2023-04-07T22:34:44.525Z,10.77
2023-04-07T22:37:12.322Z,11.27
2023-04-07T22:39:40.226Z,11.80
2023-04-07T22:42:07.977Z,9.23
2023-04-07T22:44:35.822Z,12.13
2023-04-07T22:47:05.298Z,10.70
2023-04-07T22:49:33.066Z,11.60
2023-04-07T22:52:00.817Z,10.67
2023-04-07T22:54:28.515Z,10.70
2023-04-07T22:56:56.741Z,11.33
2023-04-07T22:59:24.482Z,11.07
2023-04-07T23:01:52.265Z,10.70
2023-04-07T23:04:22.365Z,10.90
2023-04-07T23:06:50.085Z,11.60
2023-04-07T23:09:17.798Z,11.17
2023-04-07T23:11:47.159Z,11.27
2023-04-07T23:14:15.059Z,9.47
2023-04-07T23:16:42.766Z,11.97
2023-04-07T23:19:11.937Z,10.57
2023-04-07T23:21:41.340Z,11.20
2023-04-07T23:24:09.103Z,11.60
2023-04-07T23:26:36.860Z,11.83
2023-04-07T23:29:04.641Z,10.10
2023-04-07T23:31:32.412Z,10.20
2023-04-07T23:34:01.104Z,10.23
2023-04-07T23:36:28.777Z,12.10
2023-04-07T23:38:57.924Z,11.20
2023-04-07T23:41:25.625Z,10.60
2023-04-07T23:43:53.347Z,10.60
2023-04-07T23:46:21.049Z,11.57
2023-04-07T23:48:49.053Z,10.67
2023-04-07T23:51:17.006Z,11.30
2023-04-07T23:53:44.724Z,9.33
2023-04-07T23:56:13.768Z,10.27
2023-04-07T23:58:41.480Z,10.03
